Siofok, Hungary
Current Conditions -  °F | °C
As of 12:15 PM on Tuesday 21 Oct 2014 (Local Time) from LHPA Reporting Station
Scattered Clouds Scattered Clouds  
Wind Chill: 64°   Ceiling: Unl
Heat Index: 64°   Visibility: 6mi
Dew Point: 57°   Wind: 7mph
Humidity: 77%   Direction: 350°N
Pressure: 29.91"   Gusts: NA
Location:  46.9°N, 18.06°E
Report Text: LHPA 211015Z 35003MPS 9999 SCT013 SCT083 18/14 Q1013 NOSIG RMK BLU
Loading
Personal Weather Stations






























Interactive Weather Map
Tropical Storm Tracking
New forecast layout! Learn more

10-Day Weather Forecast

Advertisements
Track Severe Weather on mobile